Time;durP1;ratioP1;P1;durP2;ratioP2;P2;SDS_P1;SDS_P2;PMS_P1;PMS_P2;Temp;Humidity;BMP_temperature;BMP_pressure;BME280_temperature;BME280_humidity;BME280_pressure;Samples;Min_cycle;Max_cycle;Signal;HPM_P1;HPM_P2
2021/01/14 00:00:39;;;;;;;4.97;1.10;;;;;;;3.15;71.72;99683.31;5035894;28;20053;-83
2021/01/14 00:03:09;;;;;;;9.23;1.30;;;;;;;3.13;72.69;99681.63;5036538;28;20115;-86
2021/01/14 00:05:37;;;;;;;6.53;1.42;;;;;;;3.10;73.06;99683.47;5036503;28;20115;-83
2021/01/14 00:08:05;;;;;;;4.95;1.40;;;;;;;3.08;72.70;99680.91;5037457;28;20064;-82
2021/01/14 00:10:32;;;;;;;9.95;1.40;;;;;;;3.07;73.09;99686.13;5036547;28;20053;-83
2021/01/14 00:12:58;;;;;;;4.15;1.20;;;;;;;3.06;73.18;99684.44;5035318;28;20050;-86
2021/01/14 00:15:24;;;;;;;10.23;1.55;;;;;;;3.05;73.07;99682.72;5036219;28;20076;-83
2021/01/14 00:17:50;;;;;;;7.60;1.20;;;;;;;3.05;73.32;99686.16;5036883;28;20046;-83
2021/01/14 00:20:19;;;;;;;2.65;0.93;;;;;;;3.06;73.27;99687.03;5037751;28;20530;-83
2021/01/14 00:22:46;;;;;;;5.63;1.52;;;;;;;3.07;73.65;99686.13;5036152;28;20042;-85
2021/01/14 00:25:15;;;;;;;7.55;1.45;;;;;;;3.08;73.36;99695.63;5035234;28;20045;-83
2021/01/14 00:27:42;;;;;;;5.85;1.15;;;;;;;3.08;73.93;99699.09;5036840;28;20550;-83
2021/01/14 00:30:11;;;;;;;7.35;1.10;;;;;;;3.08;73.45;99696.50;5035270;28;20061;-87
2021/01/14 00:32:38;;;;;;;4.25;1.17;;;;;;;3.09;73.82;99700.81;5034969;28;20128;-82
2021/01/14 00:35:06;;;;;;;5.50;1.00;;;;;;;3.10;73.65;99699.91;5035885;28;20060;-83
2021/01/14 00:37:50;;;;;;;7.00;1.00;;;;;;;3.14;73.85;99703.25;5036729;28;20057;-86
2021/01/14 00:40:24;;;;;;;7.50;1.00;;;;;;;3.13;73.32;99701.56;5034780;28;20060;-83
2021/01/14 00:43:04;;;;;;;;;;;;;;;3.13;72.74;99698.97;5036131;28;20049;-87
2021/01/14 00:45:32;;;;;;;4.63;1.08;;;;;;;3.17;73.36;99711.00;5036585;28;19925;-83
2021/01/14 00:48:02;;;;;;;4.95;1.10;;;;;;;3.15;73.56;99715.41;5075532;23;20053;-81
2021/01/14 00:50:28;;;;;;;9.15;1.30;;;;;;;3.16;73.60;99717.09;5035435;28;20617;-81
2021/01/14 00:52:54;;;;;;;6.25;1.80;;;;;;;3.15;73.54;99725.78;5035169;28;20048;-81
2021/01/14 00:55:21;;;;;;;6.88;1.02;;;;;;;3.15;73.36;99735.34;5035322;28;20049;-81
2021/01/14 00:57:47;;;;;;;8.02;1.40;;;;;;;3.13;73.72;99737.97;5035238;28;20476;-81
2021/01/14 01:00:17;;;;;;;6.53;1.33;;;;;;;3.11;73.18;99740.59;5035105;28;20050;-81
2021/01/14 01:02:47;;;;;;;5.50;1.27;;;;;;;3.10;73.03;99738.91;5034836;28;20049;-82
2021/01/14 01:05:15;;;;;;;11.40;1.98;;;;;;;3.12;73.28;99737.13;5033683;28;20045;-81
2021/01/14 01:07:52;;;;;;;4.18;1.23;;;;;;;3.09;72.70;99747.63;5034851;28;20498;-81
2021/01/14 01:10:19;;;;;;;7.25;1.35;;;;;;;3.10;73.49;99751.09;5034903;28;20060;-82
2021/01/14 01:12:53;;;;;;;9.30;1.25;;;;;;;3.08;73.40;99750.25;5034923;28;20050;-82
2021/01/14 01:15:20;;;;;;;10.85;1.40;;;;;;;3.08;73.67;99764.13;5034705;28;20053;-82
2021/01/14 01:17:46;;;;;;;6.63;1.30;;;;;;;3.07;73.81;99770.19;5033629;28;20057;-81
2021/01/14 01:20:12;;;;;;;8.02;1.67;;;;;;;3.07;73.89;99771.97;5034566;28;20049;-82
2021/01/14 01:22:39;;;;;;;11.68;1.50;;;;;;;3.05;73.65;99769.41;5033203;28;20494;-82
2021/01/14 01:25:05;;;;;;;5.68;1.33;;;;;;;3.05;73.61;99772.00;5033544;28;20076;-82
2021/01/14 01:27:31;;;;;;;8.63;1.23;;;;;;;3.05;73.64;99781.53;5034567;28;20049;-81
2021/01/14 01:29:58;;;;;;;7.15;1.45;;;;;;;3.03;73.14;99778.13;5033456;28;20056;-81
2021/01/14 01:32:24;;;;;;;6.75;1.30;;;;;;;3.03;73.14;99781.56;5034495;28;20417;-81
2021/01/14 01:34:50;;;;;;;5.68;1.17;;;;;;;3.02;73.70;99781.63;5034628;28;20100;-81
2021/01/14 01:37:16;;;;;;;4.18;1.00;;;;;;;3.00;74.01;99785.09;5034337;28;20132;-81
2021/01/14 01:39:42;;;;;;;4.28;1.10;;;;;;;3.01;73.91;99788.56;5034174;28;20508;-82
2021/01/14 01:42:08;;;;;;;7.07;1.17;;;;;;;3.01;73.94;99780.75;5034115;28;20046;-81
2021/01/14 01:44:35;;;;;;;5.30;1.10;;;;;;;3.01;73.65;99785.97;5034197;28;20176;-82
2021/01/14 01:47:08;;;;;;;7.32;1.23;;;;;;;3.00;73.10;99789.47;5034091;28;20060;-82
2021/01/14 01:49:36;;;;;;;8.80;1.73;;;;;;;3.02;73.53;99803.28;5033894;28;20049;-82
2021/01/14 01:52:03;;;;;;;9.75;1.50;;;;;;;3.02;73.45;99790.25;5033423;28;20079;-81
2021/01/14 01:54:33;;;;;;;10.70;1.90;;;;;;;3.01;73.22;99801.56;5034208;28;20057;-81
2021/01/14 01:57:01;;;;;;;4.20;1.17;;;;;;;3.01;73.52;99806.78;5034144;28;20057;-82
2021/01/14 01:59:31;;;;;;;5.35;1.33;;;;;;;3.01;73.22;99814.56;5034525;28;20053;-81
2021/01/14 02:01:58;;;;;;;5.88;1.10;;;;;;;3.00;72.99;99808.50;5033920;28;20049;-81
2021/01/14 02:04:24;;;;;;;10.68;1.52;;;;;;;2.98;73.21;99810.31;5033982;28;20060;-82
2021/01/14 02:07:02;;;;;;;6.43;1.45;;;;;;;2.94;73.12;99806.06;5034031;28;20049;-81
2021/01/14 02:09:29;;;;;;;5.63;1.35;;;;;;;2.96;73.55;99816.44;5032727;28;20049;-81
2021/01/14 02:12:04;;;;;;;6.03;1.30;;;;;;;2.93;72.85;99814.78;5033961;28;20175;-81
2021/01/14 02:14:34;;;;;;;6.53;1.40;;;;;;;2.93;73.44;99825.16;5033703;28;20490;-81
2021/01/14 02:17:01;;;;;;;6.28;1.40;;;;;;;2.94;73.79;99831.22;5033780;28;20103;-80
2021/01/14 02:19:49;;;;;;;4.82;1.10;;;;;;;2.91;72.74;99821.72;5032535;28;20049;-82
2021/01/14 02:22:33;;;;;;;6.68;1.15;;;;;;;2.92;73.22;99826.03;5033470;28;20482;-81
2021/01/14 02:25:17;;;;;;;7.07;1.13;;;;;;;2.94;73.78;99826.00;5033756;28;20056;-81
2021/01/14 02:27:46;;;;;;;4.82;1.13;;;;;;;2.95;74.27;99825.97;5032659;28;20049;-81
2021/01/14 02:30:13;;;;;;;5.80;1.42;;;;;;;2.95;73.81;99827.75;5033686;28;20053;-81
2021/01/14 02:32:42;;;;;;;6.72;1.20;;;;;;;2.92;74.00;99828.63;5033561;28;20045;-82
2021/01/14 02:35:09;;;;;;;2.92;1.10;;;;;;;2.93;73.57;99830.38;5033532;28;20049;-81
2021/01/14 02:37:35;;;;;;;7.72;1.52;;;;;;;2.93;73.77;99835.56;5033521;28;20054;-82
2021/01/14 02:40:03;;;;;;;7.57;1.45;;;;;;;2.94;73.85;99839.00;5033671;28;20053;-81
2021/01/14 02:42:29;;;;;;;7.60;1.42;;;;;;;2.93;73.64;99839.91;5033348;28;20049;-81
2021/01/14 02:44:55;;;;;;;9.85;1.35;;;;;;;2.92;73.74;99846.84;5032156;28;20056;-81
2021/01/14 02:47:22;;;;;;;2.28;0.90;;;;;;;2.90;73.68;99851.22;5033535;28;20049;-81
2021/01/14 02:49:58;;;;;;;5.30;1.20;;;;;;;2.89;73.20;99853.88;5033083;28;20056;-81
2021/01/14 02:52:27;;;;;;;3.35;1.40;;;;;;;2.89;73.54;99854.72;5033387;28;20103;-82
2021/01/14 02:54:56;;;;;;;3.70;1.42;;;;;;;2.87;73.88;99856.50;5033427;28;20053;-81
2021/01/14 02:57:27;;;;;;;3.97;1.00;;;;;;;2.84;73.49;99854.00;5033257;28;20049;-81
2021/01/14 02:59:54;;;;;;;4.75;1.00;;;;;;;2.84;73.62;99862.63;5033424;28;20057;-81
2021/01/14 03:02:20;;;;;;;10.23;1.20;;;;;;;2.83;73.75;99860.94;5033058;28;20149;-82
2021/01/14 03:04:46;;;;;;;8.85;1.60;;;;;;;2.82;73.41;99855.75;5037250;28;20053;-81
2021/01/14 03:07:13;;;;;;;12.60;1.70;;;;;;;2.80;73.51;99854.97;5037271;28;20437;-81
2021/01/14 03:09:39;;;;;;;9.68;1.25;;;;;;;2.79;73.41;99872.28;5036140;28;20064;-81
2021/01/14 03:12:05;;;;;;;3.53;1.20;;;;;;;2.76;73.16;99859.34;5036815;28;20041;-81
2021/01/14 03:14:31;;;;;;;6.72;1.20;;;;;;;2.74;73.53;99867.19;5037327;28;20077;-81
2021/01/14 03:16:57;;;;;;;7.05;1.15;;;;;;;2.73;73.09;99873.28;5037101;28;20053;-81
2021/01/14 03:19:23;;;;;;;7.70;1.33;;;;;;;2.72;73.26;99870.72;5037094;28;20464;-81
2021/01/14 03:21:49;;;;;;;8.05;1.20;;;;;;;2.71;73.18;99871.59;5036768;28;20056;-81
2021/01/14 03:24:15;;;;;;;7.55;1.58;;;;;;;2.68;73.80;99875.13;5036954;28;20049;-81
2021/01/14 03:26:41;;;;;;;10.50;1.40;;;;;;;2.68;73.26;99875.13;5036722;28;20508;-81
2021/01/14 03:29:07;;;;;;;5.18;1.52;;;;;;;2.66;73.24;99879.53;5036653;28;20490;-81
2021/01/14 03:31:33;;;;;;;6.68;1.83;;;;;;;2.65;73.64;99883.00;5036618;28;20056;-81
2021/01/14 03:33:59;;;;;;;9.32;1.30;;;;;;;2.65;73.73;99887.34;5036779;28;20049;-81
2021/01/14 03:36:32;;;;;;;5.30;1.10;;;;;;;2.63;73.41;99886.50;5035671;28;20046;-82
2021/01/14 03:38:59;;;;;;;;;;;;;;;2.62;72.36;99887.41;5037058;28;20390;-82
2021/01/14 03:41:25;;;;;;;6.93;1.77;;;;;;;2.62;73.19;99888.28;5036406;28;19928;-81
2021/01/14 03:43:52;;;;;;;7.93;1.15;;;;;;;2.59;73.35;99883.97;5036284;28;20099;-81
2021/01/14 03:46:21;;;;;;;9.82;1.58;;;;;;;2.57;73.23;99895.28;5036521;28;20045;-81
2021/01/14 03:48:48;;;;;;;7.68;1.38;;;;;;;2.55;73.02;99892.72;5035287;28;20054;-81
2021/01/14 03:51:19;;;;;;;6.88;1.60;;;;;;;2.52;73.02;99889.34;5035515;28;20513;-81
2021/01/14 03:53:47;;;;;;;7.30;1.40;;;;;;;2.51;73.51;99901.50;5035292;28;20046;-81
2021/01/14 03:56:13;;;;;;;9.63;1.50;;;;;;;2.50;73.40;99896.34;5035294;28;20049;-81
2021/01/14 03:58:41;;;;;;;3.67;0.88;;;;;;;2.48;73.52;99901.56;5034970;28;20049;-81
2021/01/14 04:01:07;;;;;;;10.00;1.38;;;;;;;2.47;73.28;99900.69;5036174;28;20449;-82
2021/01/14 04:03:37;;;;;;;5.05;1.23;;;;;;;2.47;73.70;99905.88;5035839;28;20505;-81
2021/01/14 04:06:04;;;;;;;7.00;1.38;;;;;;;2.45;73.02;99907.69;5036030;28;20053;-81
2021/01/14 04:08:30;;;;;;;4.05;1.33;;;;;;;2.45;73.45;99902.47;5036571;28;20053;-81
2021/01/14 04:10:56;;;;;;;6.85;1.17;;;;;;;2.43;73.13;99909.44;5036062;28;20383;-81
2021/01/14 04:13:22;;;;;;;7.20;1.33;;;;;;;2.43;73.08;99904.25;5035452;28;20461;-82
2021/01/14 04:15:48;;;;;;;5.80;1.40;;;;;;;2.43;73.13;99913.78;5035869;28;20053;-81
2021/01/14 04:18:14;;;;;;;3.47;1.27;;;;;;;2.40;73.36;99906.91;5034978;28;20414;-81
2021/01/14 04:20:40;;;;;;;3.20;1.23;;;;;;;2.40;73.31;99911.25;5035852;28;20091;-81
2021/01/14 04:23:06;;;;;;;4.80;1.27;;;;;;;2.40;73.73;99916.44;5035713;28;20045;-81
2021/01/14 04:25:32;;;;;;;4.65;1.23;;;;;;;2.39;73.15;99909.53;5036323;28;20053;-81
2021/01/14 04:28:04;;;;;;;7.88;1.08;;;;;;;2.37;72.64;99916.50;5035811;28;20049;-81
2021/01/14 04:30:34;;;;;;;7.93;1.20;;;;;;;2.37;72.97;99919.09;5034498;28;20057;-81
2021/01/14 04:33:11;;;;;;;11.98;1.95;;;;;;;2.38;73.11;99920.81;5035385;28;20049;-81
2021/01/14 04:35:49;;;;;;;7.10;1.70;;;;;;;2.34;72.50;99925.22;5035537;28;20056;-81
2021/01/14 04:38:17;;;;;;;8.77;1.88;;;;;;;2.36;72.87;99925.19;5035463;28;20056;-81
2021/01/14 04:40:44;;;;;;;5.82;1.60;;;;;;;2.34;72.95;99931.28;5035595;28;20053;-82
2021/01/14 04:43:12;;;;;;;9.20;2.00;;;;;;;2.34;73.02;99935.59;5035288;28;20045;-81
2021/01/14 04:45:43;;;;;;;6.00;2.55;;;;;;;2.32;72.94;99938.22;5035458;28;20409;-81
2021/01/14 04:48:10;;;;;;;10.18;3.17;;;;;;;2.34;73.73;99935.59;5035369;28;20053;-81
2021/01/14 04:50:38;;;;;;;8.02;2.63;;;;;;;2.33;73.03;99928.72;5035308;28;20132;-81
2021/01/14 04:53:06;;;;;;;6.03;3.33;;;;;;;2.32;72.97;99937.41;5034928;28;20046;-81
2021/01/14 04:55:42;;;;;;;3.70;1.60;;;;;;;2.29;72.90;99945.25;5035308;28;20054;-81
2021/01/14 04:58:14;;;;;;;8.40;2.08;;;;;;;2.28;72.64;99946.97;5035062;28;20045;-81
2021/01/14 05:00:46;;;;;;;4.22;1.80;;;;;;;2.28;72.69;99943.53;5035273;28;20049;-81
2021/01/14 05:03:19;;;;;;;9.93;1.45;;;;;;;2.27;73.21;99950.47;5033610;28;20090;-81
2021/01/14 05:05:47;;;;;;;6.72;1.50;;;;;;;2.27;73.65;99949.59;5034998;28;20065;-82
2021/01/14 05:08:15;;;;;;;3.65;1.70;;;;;;;2.24;72.98;99950.50;5034907;28;20049;-81
2021/01/14 05:10:44;;;;;;;6.60;1.70;;;;;;;2.24;73.38;99953.09;5034986;28;20107;-81
2021/01/14 05:13:11;;;;;;;12.93;3.03;;;;;;;2.24;73.36;99955.69;5034857;28;20096;-82
2021/01/14 05:15:39;;;;;;;7.50;1.85;;;;;;;2.21;73.41;99954.03;5033552;28;20520;-81
2021/01/14 05:18:05;;;;;;;3.92;1.52;;;;;;;2.20;73.49;99957.53;5034918;28;20072;-81
2021/01/14 05:20:31;;;;;;;5.50;2.17;;;;;;;2.18;73.24;99959.31;5034903;28;20099;-81
2021/01/14 05:23:03;;;;;;;9.30;1.92;;;;;;;2.15;72.74;99961.94;5034443;28;20046;-81
2021/01/14 05:25:30;;;;;;;6.40;1.52;;;;;;;2.16;73.51;99967.97;5033982;28;20053;-81
2021/01/14 05:28:10;;;;;;;5.80;1.73;;;;;;;2.12;73.30;99972.38;5034742;28;20049;-81
2021/01/14 05:30:36;;;;;;;8.75;2.00;;;;;;;2.13;73.92;99974.09;5034706;28;20057;-81
2021/01/14 05:33:03;;;;;;;9.88;1.70;;;;;;;2.14;73.74;99970.63;5034221;28;20441;-81
2021/01/14 05:35:30;;;;;;;8.02;1.67;;;;;;;2.15;74.10;99971.47;5034434;28;20103;-81
2021/01/14 05:38:03;;;;;;;4.82;1.55;;;;;;;2.17;74.15;99977.50;5033304;28;20061;-82
2021/01/14 05:40:30;;;;;;;3.35;1.23;;;;;;;2.17;74.24;99965.34;5034361;28;20494;-81
2021/01/14 05:43:04;;;;;;;8.88;1.58;;;;;;;2.19;74.20;99974.00;5034192;28;20045;-82
2021/01/14 05:45:32;;;;;;;6.78;1.48;;;;;;;2.23;74.74;99979.97;5034397;28;20053;-82
2021/01/14 05:48:08;;;;;;;4.95;2.47;;;;;;;2.25;73.71;99983.41;5034119;28;20122;-82
2021/01/14 05:50:43;;;;;;;7.20;1.75;;;;;;;2.29;73.85;99986.81;5034426;28;20053;-82
2021/01/14 05:53:19;;;;;;;10.05;1.80;;;;;;;2.33;74.03;99985.84;5033977;28;20049;-82
2021/01/14 05:55:51;;;;;;;8.30;1.60;;;;;;;2.36;74.03;99985.81;5034220;28;20053;-82
2021/01/14 05:58:18;;;;;;;6.10;1.45;;;;;;;2.41;74.84;99991.75;5032756;28;20054;-82
2021/01/14 06:00:46;;;;;;;9.05;1.77;;;;;;;2.43;74.41;99989.97;5034125;28;20057;-81
2021/01/14 06:03:26;;;;;;;8.52;1.90;;;;;;;2.44;73.75;99990.84;5032480;28;20456;-82
2021/01/14 06:05:54;;;;;;;7.15;1.85;;;;;;;2.51;74.42;99991.59;5034061;28;20045;-81
2021/01/14 06:08:29;;;;;;;4.55;1.90;;;;;;;2.52;73.49;99995.88;5032811;28;20053;-82
2021/01/14 06:10:56;;;;;;;5.85;2.13;;;;;;;2.56;74.66;100003.59;5034035;28;20073;-82
2021/01/14 06:13:39;;;;;;;4.95;1.70;;;;;;;2.57;73.34;100009.63;5033531;28;20057;-82
2021/01/14 06:16:06;;;;;;;6.88;1.90;;;;;;;2.62;74.79;100010.44;5032451;28;20056;-82
2021/01/14 06:18:33;;;;;;;10.10;2.30;;;;;;;2.64;74.69;100011.22;5033585;28;20414;-82
2021/01/14 06:20:59;;;;;;;7.55;2.35;;;;;;;2.66;74.31;100012.06;5033676;28;20092;-82
2021/01/14 06:23:25;;;;;;;4.70;1.52;;;;;;;2.68;74.12;100012.88;5033435;28;20486;-82
2021/01/14 06:25:53;;;;;;;4.70;1.52;;;;;;;2.70;74.55;100013.69;5033445;28;20064;-82
2021/01/14 06:28:33;;;;;;;8.07;2.75;;;;;;;2.71;73.48;100017.16;5033631;28;20049;-82
2021/01/14 06:31:07;;;;;;;7.68;2.30;;;;;;;2.77;74.18;100029.19;5033536;28;20049;-82
2021/01/14 06:33:35;;;;;;;5.03;2.20;;;;;;;2.79;73.97;100028.28;5033233;28;20045;-82
2021/01/14 06:36:09;;;;;;;6.43;2.25;;;;;;;2.79;73.65;100027.41;5032228;28;20128;-82
2021/01/14 06:38:44;;;;;;;5.68;2.15;;;;;;;2.80;73.34;100029.13;5033126;28;20045;-82
2021/01/14 06:41:18;;;;;;;8.38;2.15;;;;;;;2.83;73.53;100031.66;5033568;28;20076;-82
2021/01/14 06:43:47;;;;;;;4.28;1.75;;;;;;;2.86;74.55;100042.00;5033134;28;20494;-81
2021/01/14 06:46:24;;;;;;;5.90;2.10;;;;;;;2.86;73.97;100036.78;5033515;28;20049;-82
2021/01/14 06:49:05;;;;;;;7.25;2.40;;;;;;;2.87;73.42;100043.69;5073304;22;20056;-87
2021/01/14 06:51:54;;;;;;;8.50;2.28;;;;;;;2.89;72.88;100048.88;5034926;28;20049;-84
2021/01/14 06:54:21;;;;;;;5.97;2.03;;;;;;;2.95;74.32;100056.56;5033446;28;20045;-88
2021/01/14 06:56:53;;;;;;;5.35;2.47;;;;;;;2.95;74.52;100053.97;5033285;28;20053;-87
2021/01/14 06:59:21;;;;;;;10.77;2.97;;;;;;;2.96;74.27;100056.50;5048914;28;20046;-87
2021/01/14 07:02:05;;;;;;;9.75;2.58;;;;;;;2.95;73.00;100062.59;5033435;28;20107;-84
2021/01/14 07:04:43;;;;;;;6.15;2.35;;;;;;;2.99;73.59;100066.03;5050457;28;20045;-83
2021/01/14 07:07:24;;;;;;;8.02;3.10;;;;;;;3.02;74.08;100072.91;5034294;28;20049;-88
2021/01/14 07:10:07;;;;;;;12.13;3.55;;;;;;;3.03;73.76;100069.41;5033421;28;20057;-87
2021/01/14 07:12:38;;;;;;;10.15;4.28;;;;;;;3.07;74.21;100071.06;5049810;28;20104;-84
2021/01/14 07:15:13;;;;;;;11.40;4.65;;;;;;;3.08;73.41;100078.81;5049542;28;20053;-88
2021/01/14 07:17:41;;;;;;;7.93;4.95;;;;;;;3.13;74.40;100086.53;5033199;28;20490;-84
2021/01/14 07:20:15;;;;;;;8.95;4.40;;;;;;;3.13;73.97;100083.91;5048898;28;20053;-87
2021/01/14 07:22:48;;;;;;;12.15;4.97;;;;;;;3.17;74.22;100088.16;5033040;28;20045;-88
2021/01/14 07:25:15;;;;;;;11.33;4.87;;;;;;;3.20;74.54;100092.44;5033528;28;20052;-84
2021/01/14 07:27:43;;;;;;;9.27;5.70;;;;;;;3.20;74.30;100093.31;5032165;28;20287;-84
2021/01/14 07:30:10;;;;;;;6.75;3.92;;;;;;;3.22;74.55;100096.72;5048552;28;20050;-84
2021/01/14 07:32:54;;;;;;;7.60;3.85;;;;;;;3.21;73.15;100102.81;5033910;28;20042;-84
2021/01/14 07:35:37;;;;;;;10.27;3.65;;;;;;;3.23;73.03;100114.06;5033349;28;20053;-84
2021/01/14 07:38:05;;;;;;;6.63;3.50;;;;;;;3.26;73.60;100111.38;5033484;28;20049;-84
2021/01/14 07:40:32;;;;;;;9.07;3.72;;;;;;;3.26;73.94;100108.78;5048326;28;20414;-88
2021/01/14 07:43:02;;;;;;;9.07;3.58;;;;;;;3.25;73.87;100111.41;5048252;28;20489;-84
2021/01/14 07:45:31;;;;;;;10.50;3.45;;;;;;;3.26;73.69;100118.34;5033824;28;20430;-87
2021/01/14 07:48:18;;;;;;;8.02;2.95;;;;;;;3.22;72.47;100122.75;5048288;28;20049;-84
2021/01/14 07:50:58;;;;;;;11.32;3.08;;;;;;;3.21;72.53;100131.44;5052364;28;20053;-84
2021/01/14 07:53:26;;;;;;;11.68;3.03;;;;;;;3.24;73.77;100127.91;5051873;28;20049;-88
2021/01/14 07:55:53;;;;;;;6.45;2.80;;;;;;;3.23;73.89;100129.69;5035096;28;20049;-88
2021/01/14 07:58:24;;;;;;;6.20;3.10;;;;;;;3.22;73.52;100137.50;5036119;28;20453;-88
2021/01/14 08:01:05;;;;;;;8.57;3.30;;;;;;;3.22;73.00;100140.94;5037784;28;20080;-87
2021/01/14 08:03:37;;;;;;;7.25;3.00;;;;;;;3.24;73.41;100146.13;5036454;28;20049;-84
2021/01/14 08:06:26;;;;;;;9.43;3.42;;;;;;;3.22;72.93;100148.75;5035138;28;20049;-88
2021/01/14 08:09:00;;;;;;;5.97;2.83;;;;;;;3.25;73.48;100153.03;5052586;28;20053;-84
2021/01/14 08:11:32;;;;;;;10.07;3.80;;;;;;;3.24;73.25;100154.81;5052580;28;20045;-88
2021/01/14 08:14:18;;;;;;;10.35;3.20;;;;;;;3.24;72.86;100159.13;5034677;28;20491;-87
2021/01/14 08:16:50;;;;;;;6.55;3.05;;;;;;;3.28;73.34;100160.78;5051571;28;20053;-88
2021/01/14 08:19:28;;;;;;;5.35;2.40;;;;;;;3.32;73.75;100159.00;5052060;28;20127;-84
2021/01/14 08:22:05;;;;;;;7.93;2.67;;;;;;;3.31;72.67;100162.47;5036957;28;20049;-88
2021/01/14 08:24:46;;;;;;;6.13;2.65;;;;;;;3.32;73.23;100165.03;5036465;28;20060;-88
2021/01/14 08:27:32;;;;;;;5.03;2.50;;;;;;;3.31;72.63;100163.34;5050780;28;20089;-88
2021/01/14 08:30:04;;;;;;;9.48;3.30;;;;;;;3.34;74.01;100172.81;5051480;28;20060;-84
2021/01/14 08:32:31;;;;;;;7.57;2.88;;;;;;;3.33;73.73;100173.72;5051392;28;20395;-84
2021/01/14 08:35:19;;;;;;;8.35;3.10;;;;;;;3.35;73.86;100171.94;5049215;28;20053;-85
2021/01/14 08:37:57;;;;;;;10.68;3.53;;;;;;;3.34;72.78;100178.03;5051207;28;20561;-88
2021/01/14 08:40:23;;;;;;;7.35;2.97;;;;;;;3.38;74.11;100190.09;5034842;28;20470;-88
2021/01/14 08:43:03;;;;;;;12.60;3.95;;;;;;;3.36;73.16;100191.84;5050836;28;20042;-88
2021/01/14 08:45:34;;;;;;;11.95;3.83;;;;;;;3.39;73.49;100194.41;5050769;28;20053;-88
2021/01/14 08:48:03;;;;;;;7.57;3.58;;;;;;;3.41;73.51;100184.84;5034632;28;20045;-87
2021/01/14 08:50:44;;;;;;;8.88;3.67;;;;;;;3.43;73.18;100197.81;5035534;28;20453;-88
2021/01/14 08:53:17;;;;;;;7.20;3.45;;;;;;;3.45;73.75;100203.84;5051057;28;20096;-85
2021/01/14 08:55:58;;;;;;;7.63;3.35;;;;;;;3.46;74.18;100197.75;5051039;28;20056;-88
2021/01/14 08:58:44;;;;;;;9.13;3.30;;;;;;;3.45;72.83;100196.91;5034242;28;20072;-88
2021/01/14 09:01:17;;;;;;;10.85;3.65;;;;;;;3.49;73.88;100203.75;5034274;28;20055;-84
2021/01/14 09:03:47;;;;;;;11.48;4.50;;;;;;;3.50;73.73;100202.88;5035037;28;20045;-84
2021/01/14 09:06:28;;;;;;;6.32;3.80;;;;;;;3.51;73.42;100204.56;5050884;28;20054;-88
2021/01/14 09:08:54;;;;;;;9.55;4.05;;;;;;;3.55;74.09;100197.53;5051376;28;20050;-84
2021/01/14 09:11:24;;;;;;;5.20;3.25;;;;;;;3.56;73.54;100214.03;5034343;28;20045;-84
2021/01/14 09:14:00;;;;;;;9.48;4.15;;;;;;;3.56;73.00;100212.28;5035797;28;20123;-84
2021/01/14 09:16:26;;;;;;;10.95;4.03;;;;;;;3.60;73.80;100206.13;5035537;28;20053;-84
2021/01/14 09:18:52;;;;;;;11.05;4.35;;;;;;;3.62;73.83;100209.56;5034093;28;20057;-88
2021/01/14 09:21:18;;;;;;;7.32;4.03;;;;;;;3.64;73.79;100209.53;5050506;28;20057;-88
2021/01/14 09:23:44;;;;;;;8.82;4.30;;;;;;;3.67;73.78;100213.81;5033793;28;20046;-84
2021/01/14 09:26:18;;;;;;;8.65;4.15;;;;;;;3.66;73.05;100218.16;5033862;28;20391;-88
2021/01/14 09:28:52;;;;;;;7.40;4.07;;;;;;;3.67;73.56;100219.88;5034671;28;20053;-84
2021/01/14 09:31:19;;;;;;;6.78;4.13;;;;;;;3.70;74.03;100216.34;5033648;28;20402;-85
2021/01/14 09:33:48;;;;;;;7.20;3.35;;;;;;;3.72;73.51;100222.38;5034874;28;20056;-84
2021/01/14 09:36:16;;;;;;;11.50;4.53;;;;;;;3.73;73.45;100227.56;5036298;28;20095;-84
2021/01/14 09:38:47;;;;;;;10.13;4.18;;;;;;;3.75;73.32;100224.91;5049959;28;20061;-88
2021/01/14 09:41:33;;;;;;;7.57;3.75;;;;;;;3.78;73.96;100230.06;5034994;28;20049;-88
2021/01/14 09:44:04;;;;;;;9.57;4.60;;;;;;;3.81;73.05;100231.75;5049672;28;20045;-85
2021/01/14 09:46:34;;;;;;;9.60;3.72;;;;;;;3.84;73.60;100231.66;5050974;28;20383;-84
2021/01/14 09:49:09;;;;;;;15.82;4.50;;;;;;;3.86;73.75;100237.72;5035173;28;20058;-88
2021/01/14 09:51:39;;;;;;;10.70;4.82;;;;;;;3.90;73.78;100244.56;5049767;28;20063;-88
2021/01/14 09:54:07;;;;;;;10.52;5.00;;;;;;;3.93;73.63;100241.03;5034125;28;20049;-88
2021/01/14 09:56:46;;;;;;;13.93;6.10;;;;;;;3.94;73.15;100241.00;5049343;28;20060;-88
2021/01/14 09:59:17;;;;;;;11.45;6.18;;;;;;;3.99;73.77;100233.06;5049449;28;20049;-84
2021/01/14 10:01:50;;;;;;;12.07;5.78;;;;;;;4.01;73.48;100247.78;5050265;28;20061;-85
2021/01/14 10:04:19;;;;;;;16.65;6.05;;;;;;;4.05;73.91;100240.78;5049904;28;20046;-88
2021/01/14 10:06:53;;;;;;;12.52;5.63;;;;;;;4.07;73.57;100240.75;5033060;28;20057;-88
2021/01/14 10:09:20;;;;;;;14.45;5.53;;;;;;;4.12;74.06;100244.09;5034177;28;20045;-85
2021/01/14 10:11:46;;;;;;;10.75;5.13;;;;;;;4.14;73.89;100242.31;5033831;28;20057;-89
2021/01/14 10:14:20;;;;;;;11.82;5.18;;;;;;;4.13;72.85;100236.25;5032903;28;20149;-88
2021/01/14 10:16:48;;;;;;;14.13;4.90;;;;;;;4.19;73.87;100244.81;5049889;28;20060;-85
2021/01/14 10:19:19;;;;;;;12.27;4.88;;;;;;;4.19;73.14;100240.47;5032932;28;20046;-85
2021/01/14 10:21:47;;;;;;;11.85;4.88;;;;;;;4.21;73.76;100233.47;5033917;28;20144;-88
2021/01/14 10:24:26;;;;;;;12.60;5.22;;;;;;;4.22;72.92;100244.75;5033678;28;20050;-85
2021/01/14 10:26:53;;;;;;;9.80;4.57;;;;;;;4.26;73.91;100249.84;5034467;28;20121;-84
2021/01/14 10:29:49;;;;;;;9.90;5.03;;;;;;;4.26;72.51;100239.44;5032941;28;20045;-84
2021/01/14 10:32:21;;;;;;;10.32;4.63;;;;;;;4.32;73.31;100250.59;5024670;28;20081;-85
2021/01/14 10:34:49;;;;;;;11.48;4.78;;;;;;;4.33;73.58;100245.34;5049391;28;20049;-87
2021/01/14 10:37:25;;;;;;;10.27;4.70;;;;;;;4.34;73.13;100241.84;5033778;28;20060;-89
2021/01/14 10:39:57;;;;;;;12.27;5.32;;;;;;;4.36;73.71;100257.44;5033959;28;20049;-85
2021/01/14 10:42:39;;;;;;;9.90;5.93;;;;;;;4.34;72.36;100249.66;5034597;28;20076;-85
2021/01/14 10:45:06;;;;;;;9.55;5.35;;;;;;;4.39;73.59;100258.25;5034020;28;20108;-85
2021/01/14 10:47:34;;;;;;;11.50;5.18;;;;;;;4.40;73.79;100254.75;5033965;28;20119;-85
2021/01/14 10:50:01;;;;;;;9.20;5.13;;;;;;;4.41;73.67;100259.06;5048684;28;20057;-88
2021/01/14 10:52:27;;;;;;;14.90;5.13;;;;;;;4.43;73.77;100254.69;5033261;28;20103;-88
2021/01/14 10:55:01;;;;;;;13.68;5.43;;;;;;;4.43;72.92;100257.28;5049167;28;20057;-85
2021/01/14 10:58:04;;;;;;;13.55;5.57;;;;;;;4.42;71.93;100262.53;5048926;28;20421;-85
2021/01/14 11:00:38;;;;;;;13.20;5.18;;;;;;;4.45;72.57;100262.44;5033520;28;20045;-88
2021/01/14 11:03:05;;;;;;;8.98;5.00;;;;;;;4.48;73.47;100256.34;5049768;28;20593;-88
2021/01/14 11:05:41;;;;;;;11.00;4.93;;;;;;;4.45;72.59;100261.59;5047030;28;20083;-88
2021/01/14 11:08:09;;;;;;;10.55;4.80;;;;;;;4.48;73.49;100262.38;5032826;28;20050;-88
2021/01/14 11:10:41;;;;;;;10.18;5.13;;;;;;;4.48;73.46;100262.38;5032918;28;20057;-88
2021/01/14 11:13:18;;;;;;;11.43;5.75;;;;;;;4.46;72.54;100258.97;5032006;28;20056;-85
2021/01/14 11:15:47;;;;;;;11.07;5.30;;;;;;;4.49;73.77;100261.47;5031774;28;20127;-88
2021/01/14 11:18:17;;;;;;;;;;;;;;;4.50;72.21;100259.75;5032887;28;20057;-88
2021/01/14 11:20:43;;;;;;;12.25;4.90;;;;;;;4.53;73.50;100264.91;5033375;28;19964;-88
2021/01/14 11:23:12;;;;;;;10.13;5.53;;;;;;;4.51;73.47;100257.09;5033235;28;20469;-88
2021/01/14 11:25:39;;;;;;;10.30;5.18;;;;;;;4.51;73.56;100256.25;5035204;28;20565;-88
2021/01/14 11:28:05;;;;;;;11.68;5.65;;;;;;;4.50;73.45;100258.00;5036675;28;20060;-88
2021/01/14 11:30:31;;;;;;;9.88;5.03;;;;;;;4.50;73.81;100258.00;5035440;28;20410;-85
2021/01/14 11:32:57;;;;;;;10.23;5.57;;;;;;;4.51;73.63;100256.25;5034576;28;20052;-88
2021/01/14 11:35:26;;;;;;;13.07;5.57;;;;;;;4.49;73.34;100261.47;5036638;28;20048;-88
2021/01/14 11:37:52;;;;;;;13.18;6.05;;;;;;;4.51;73.62;100259.72;5035480;28;20049;-85
2021/01/14 11:40:18;;;;;;;10.73;5.60;;;;;;;4.51;73.55;100262.31;5036270;28;20072;-85
2021/01/14 11:42:44;;;;;;;9.40;5.63;;;;;;;4.53;73.65;100263.13;5034377;28;20140;-85
2021/01/14 11:45:11;;;;;;;12.35;6.20;;;;;;;4.52;73.35;100269.25;5036072;28;20053;-88
2021/01/14 11:47:37;;;;;;;11.32;5.50;;;;;;;4.54;73.30;100257.03;5035943;28;20061;-85
2021/01/14 11:50:03;;;;;;;10.27;5.82;;;;;;;4.53;73.53;100263.13;5036698;28;20053;-88
2021/01/14 11:52:29;;;;;;;11.45;5.25;;;;;;;4.55;73.47;100263.97;5036639;28;20068;-89